Time;durP1;ratioP1;P1;durP2;ratioP2;P2;SDS_P1;SDS_P2;PMS_P1;PMS_P2;Temp;Humidity;BMP_temperature;BMP_pressure;BME280_temperature;BME280_humidity;BME280_pressure;Samples;Min_cycle;Max_cycle;Signal;HPM_P1;HPM_P2
2022/03/18 00:01:01;;;;;;;;;;;6.90;99.90;;;;;;5116628;28;19937;-52
2022/03/18 00:03:33;;;;;;;;;;;6.80;99.90;;;;;;5108050;28;20297;-54
2022/03/18 00:06:06;;;;;;;;;;;6.80;99.90;;;;;;5122012;28;19922;-53
2022/03/18 00:08:38;;;;;;;;;;;6.70;99.90;;;;;;5125527;28;19926;-54
2022/03/18 00:11:11;;;;;;;;;;;6.70;99.90;;;;;;5124776;28;19926;-52
2022/03/18 00:13:43;;;;;;;;;;;6.70;99.90;;;;;;5123201;28;20334;-51
2022/03/18 00:16:16;;;;;;;;;;;6.60;99.90;;;;;;5121327;28;19940;-52
2022/03/18 00:18:48;;;;;;;;;;;6.60;99.90;;;;;;5119904;28;19929;-52
2022/03/18 00:21:21;;;;;;;;;;;6.60;99.90;;;;;;5123106;28;19930;-52
2022/03/18 00:23:54;;;;;;;;;;;6.60;99.90;;;;;;5124228;28;19930;-53
2022/03/18 00:26:26;;;;;;;;;;;6.60;99.90;;;;;;5123586;28;19933;-53
2022/03/18 00:28:59;;;;;;;;;;;6.50;99.90;;;;;;5124017;28;19922;-53
2022/03/18 00:31:32;;;;;;;;;;;6.50;99.90;;;;;;5123822;28;19931;-52
2022/03/18 00:34:04;;;;;;;;;;;6.50;99.90;;;;;;5126383;28;19926;-52
2022/03/18 00:36:37;;;;;;;;;;;6.50;99.90;;;;;;5125383;28;19922;-52
2022/03/18 00:39:09;;;;;;;;;;;6.50;99.90;;;;;;5125477;28;19922;-56
2022/03/18 00:41:42;;;;;;;;;;;6.50;99.90;;;;;;5120873;28;19922;-53
2022/03/18 00:44:14;;;;;;;;;;;6.40;99.90;;;;;;5121953;28;20080;-54
2022/03/18 00:46:46;;;;;;;;;;;6.40;99.90;;;;;;5120294;28;19926;-51
2022/03/18 00:52:14;;;;;;;;;;;6.30;99.90;;;;;;5125042;28;19926;-53
2022/03/18 00:54:46;;;;;;;;;;;6.30;99.90;;;;;;5122128;28;19933;-53
2022/03/18 00:57:18;;;;;;;;;;;6.30;99.90;;;;;;5118876;28;19929;-54
2022/03/18 00:59:51;;;;;;;;;;;6.30;99.90;;;;;;5136683;28;19937;-51
2022/03/18 01:02:23;;;;;;;;;;;6.30;99.90;;;;;;5123210;28;19926;-55
2022/03/18 01:04:56;;;;;;;;;;;6.30;99.90;;;;;;5126387;28;19926;-56
2022/03/18 01:07:29;;;;;;;;;;;6.30;99.90;;;;;;5123146;28;19922;-52
2022/03/18 01:10:01;;;;;;;;;;;6.30;99.90;;;;;;5118927;28;19937;-52
2022/03/18 01:12:33;;;;;;;;;;;6.30;99.90;;;;;;5138552;28;20413;-54
2022/03/18 01:15:07;;;;;;;;;;;6.30;99.90;;;;;;5120293;28;19930;-52
2022/03/18 01:17:39;;;;;;;;;;;6.30;99.90;;;;;;5119613;28;19922;-53
2022/03/18 01:20:11;;;;;;;;;;;6.30;99.90;;;;;;5120240;28;19930;-52
2022/03/18 01:22:44;;;;;;;;;;;6.30;99.90;;;;;;5119618;28;20499;-51
2022/03/18 01:25:16;;;;;;;;;;;6.20;99.90;;;;;;5122065;28;19929;-51
2022/03/18 01:27:48;;;;;;;;;;;6.30;99.90;;;;;;5122683;28;19933;-54
2022/03/18 01:30:20;;;;;;;;;;;6.20;99.90;;;;;;5124521;28;19926;-54
2022/03/18 01:32:53;;;;;;;;;;;6.20;99.90;;;;;;5123401;28;19929;-51
2022/03/18 01:35:26;;;;;;;;;;;6.20;99.90;;;;;;5128318;28;19930;-55
2022/03/18 01:37:58;;;;;;;;;;;6.20;99.90;;;;;;5120812;28;19923;-54
2022/03/18 01:40:31;;;;;;;;;;;6.20;99.90;;;;;;5124592;28;19930;-55
2022/03/18 01:43:06;;;;;;;;;;;6.20;99.90;;;;;;5119124;28;19926;-52
2022/03/18 01:45:38;;;;;;;;;;;6.20;99.90;;;;;;5115138;28;19941;-52
2022/03/18 01:48:11;;;;;;;;;;;6.20;99.90;;;;;;5125117;28;19940;-52
2022/03/18 01:50:43;;;;;;;;;;;6.20;99.90;;;;;;5121453;28;19941;-53
2022/03/18 01:53:16;;;;;;;;;;;6.20;99.90;;;;;;5134421;28;19926;-54
2022/03/18 01:55:48;;;;;;;;;;;6.20;99.90;;;;;;5125538;28;20008;-52
2022/03/18 01:58:21;;;;;;;;;;;6.20;99.90;;;;;;5119197;28;19926;-52
2022/03/18 02:00:53;;;;;;;;;;;6.20;99.90;;;;;;5117443;28;19924;-53
2022/03/18 02:03:26;;;;;;;;;;;6.20;99.90;;;;;;5133018;28;20393;-54
2022/03/18 02:05:58;;;;;;;;;;;6.20;99.90;;;;;;5119596;28;19974;-54
2022/03/18 02:08:31;;;;;;;;;;;6.20;99.90;;;;;;5114637;28;19926;-54
2022/03/18 02:11:03;;;;;;;;;;;6.10;99.90;;;;;;5119717;28;19930;-52
2022/03/18 02:13:35;;;;;;;;;;;6.10;99.90;;;;;;5120232;28;19926;-51
2022/03/18 02:16:08;;;;;;;;;;;6.10;99.90;;;;;;5119510;28;19922;-54
2022/03/18 02:18:40;;;;;;;;;;;6.10;99.90;;;;;;5119224;28;19926;-51
2022/03/18 02:21:13;;;;;;;;;;;6.10;99.90;;;;;;5118746;28;19933;-55
2022/03/18 02:23:46;;;;;;;;;;;6.10;99.90;;;;;;5124076;28;19926;-51
2022/03/18 02:26:18;;;;;;;;;;;6.20;99.90;;;;;;5103105;28;19933;-51
2022/03/18 02:28:50;;;;;;;;;;;6.10;99.90;;;;;;5118977;28;20420;-54
2022/03/18 02:31:27;;;;;;;;;;;6.20;99.90;;;;;;5126020;28;19922;-53
2022/03/18 02:33:59;;;;;;;;;;;6.20;99.90;;;;;;5142414;28;19922;-51
2022/03/18 02:36:32;;;;;;;;;;;6.20;99.90;;;;;;5123361;28;19988;-52
2022/03/18 02:39:04;;;;;;;;;;;6.10;99.90;;;;;;5127080;28;19926;-51
2022/03/18 02:41:36;;;;;;;;;;;6.20;99.90;;;;;;5138278;28;19930;-51
2022/03/18 02:44:09;;;;;;;;;;;6.20;99.90;;;;;;5127755;28;19926;-53
2022/03/18 02:46:41;;;;;;;;;;;6.20;99.90;;;;;;5119920;28;21759;-49
2022/03/18 02:49:13;;;;;;;;;;;6.20;99.90;;;;;;5125384;28;20370;-52
2022/03/18 02:51:46;;;;;;;;;;;6.20;99.90;;;;;;5125993;28;19929;-50
2022/03/18 02:54:18;;;;;;;;;;;6.20;99.90;;;;;;5126674;28;19997;-56
2022/03/18 02:56:50;;;;;;;;;;;6.20;99.90;;;;;;5126561;28;19926;-51
2022/03/18 02:59:22;;;;;;;;;;;6.20;99.90;;;;;;5124209;28;19930;-50
2022/03/18 03:01:55;;;;;;;;;;;6.20;99.90;;;;;;5119998;28;19930;-50
2022/03/18 03:04:28;;;;;;;;;;;6.10;99.90;;;;;;5124787;28;20557;-51
2022/03/18 03:09:51;;;;;;;;;;;6.10;99.90;;;;;;5119909;28;20390;-51
2022/03/18 03:12:23;;;;;;;;;;;6.10;99.90;;;;;;5136988;28;20005;-51
2022/03/18 03:14:56;;;;;;;;;;;6.10;99.90;;;;;;5124598;28;19926;-49
2022/03/18 03:17:28;;;;;;;;;;;6.00;99.90;;;;;;5125922;28;20043;-49
2022/03/18 03:20:01;;;;;;;;;;;6.00;99.90;;;;;;5123989;28;19937;-54
2022/03/18 03:22:33;;;;;;;;;;;6.00;99.90;;;;;;5119947;28;19933;-51
2022/03/18 03:25:06;;;;;;;;;;;6.00;99.90;;;;;;5121284;28;19926;-50
2022/03/18 03:27:39;;;;;;;;;;;5.90;99.90;;;;;;5141179;28;19936;-51
2022/03/18 03:30:11;;;;;;;;;;;6.00;99.90;;;;;;5122203;28;19942;-51
2022/03/18 03:32:43;;;;;;;;;;;5.90;99.90;;;;;;5120930;28;19926;-51
2022/03/18 03:35:16;;;;;;;;;;;5.90;99.90;;;;;;5137749;28;19972;-49
2022/03/18 03:37:48;;;;;;;;;;;5.90;99.90;;;;;;5137863;28;19926;-50
2022/03/18 03:40:20;;;;;;;;;;;5.90;99.90;;;;;;5128081;28;19926;-51
2022/03/18 03:42:53;;;;;;;;;;;5.80;99.90;;;;;;5124638;28;19922;-53
2022/03/18 03:45:25;;;;;;;;;;;5.80;99.90;;;;;;5121739;28;19923;-52
2022/03/18 03:47:58;;;;;;;;;;;5.80;99.90;;;;;;5123978;28;19934;-51
2022/03/18 03:50:30;;;;;;;;;;;5.80;99.90;;;;;;5126016;28;19937;-51
2022/03/18 03:53:03;;;;;;;;;;;5.70;99.90;;;;;;5126375;28;19926;-53
2022/03/18 03:55:39;;;;;;;;;;;5.70;99.90;;;;;;5125641;28;20828;-56
2022/03/18 03:58:11;;;;;;;;;;;5.70;99.90;;;;;;5123946;28;20523;-49
2022/03/18 04:00:44;;;;;;;;;;;5.70;99.90;;;;;;5120767;28;20414;-54
2022/03/18 04:03:16;;;;;;;;;;;5.70;99.90;;;;;;5123362;28;20317;-50
2022/03/18 04:05:49;;;;;;;;;;;5.70;99.90;;;;;;5123508;28;19926;-51
2022/03/18 04:08:21;;;;;;;;;;;5.70;99.90;;;;;;5129094;28;19927;-51
2022/03/18 04:10:54;;;;;;;;;;;5.60;99.90;;;;;;5108820;28;19937;-55
2022/03/18 04:13:26;;;;;;;;;;;5.60;99.90;;;;;;5119409;28;19922;-50
2022/03/18 04:15:59;;;;;;;;;;;5.60;99.90;;;;;;5120765;28;19929;-55
2022/03/18 04:18:31;;;;;;;;;;;5.60;99.90;;;;;;5121932;28;20321;-53
2022/03/18 04:21:03;;;;;;;;;;;5.60;99.90;;;;;;5114399;28;19930;-54
2022/03/18 04:23:36;;;;;;;;;;;5.60;99.90;;;;;;5112388;28;19929;-54
2022/03/18 04:26:08;;;;;;;;;;;5.50;99.90;;;;;;5112981;28;19922;-53
2022/03/18 04:28:40;;;;;;;;;;;5.50;99.90;;;;;;5110676;28;19930;-52
2022/03/18 04:31:12;;;;;;;;;;;5.50;99.90;;;;;;5110878;28;19926;-55
2022/03/18 04:33:45;;;;;;;;;;;5.50;99.90;;;;;;5117561;28;19926;-53
2022/03/18 04:36:17;;;;;;;;;;;5.40;99.90;;;;;;5134867;28;19922;-53
2022/03/18 04:38:50;;;;;;;;;;;5.40;99.90;;;;;;5111213;28;19933;-51
2022/03/18 04:41:22;;;;;;;;;;;5.40;99.90;;;;;;5113184;28;19930;-50
2022/03/18 04:43:55;;;;;;;;;;;5.40;99.90;;;;;;5115965;28;19933;-51
2022/03/18 04:46:28;;;;;;;;;;;5.40;99.90;;;;;;5109210;28;20936;-52
2022/03/18 04:49:00;;;;;;;;;;;5.30;99.90;;;;;;5111666;28;19930;-51
2022/03/18 04:51:33;;;;;;;;;;;5.30;99.90;;;;;;5114521;28;20419;-54
2022/03/18 04:54:05;;;;;;;;;;;5.30;99.90;;;;;;5103555;28;19937;-52
2022/03/18 04:59:28;;;;;;;;;;;5.30;99.90;;;;;;5113318;28;19933;-53
2022/03/18 05:02:00;;;;;;;;;;;5.30;99.90;;;;;;5127835;28;19930;-51
2022/03/18 05:04:33;;;;;;;;;;;5.20;99.90;;;;;;5116456;28;19930;-51
2022/03/18 05:07:05;;;;;;;;;;;5.20;99.90;;;;;;5114627;28;19933;-53
2022/03/18 05:09:41;;;;;;;;;;;5.20;99.90;;;;;;5113057;28;19930;-51
2022/03/18 05:12:14;;;;;;;;;;;5.20;99.90;;;;;;5111617;28;20029;-53
2022/03/18 05:14:46;;;;;;;;;;;5.20;99.90;;;;;;5148600;22;20770;-56
2022/03/18 05:17:18;;;;;;;;;;;5.20;99.90;;;;;;5110008;28;19957;-54
2022/03/18 05:19:51;;;;;;;;;;;5.20;99.90;;;;;;5097932;28;19938;-56
2022/03/18 05:22:23;;;;;;;;;;;5.20;99.90;;;;;;5107859;28;19937;-56
2022/03/18 05:24:55;;;;;;;;;;;5.10;99.90;;;;;;5114866;28;19964;-55
2022/03/18 05:27:28;;;;;;;;;;;5.10;99.90;;;;;;5115824;28;20364;-55
2022/03/18 05:30:00;;;;;;;;;;;5.00;99.90;;;;;;5103844;28;20293;-57
2022/03/18 05:32:33;;;;;;;;;;;5.00;99.90;;;;;;5112391;28;20381;-57
2022/03/18 05:35:10;;;;;;;;;;;5.00;99.90;;;;;;5105787;28;20674;-56
2022/03/18 05:37:43;;;;;;;;;;;5.00;99.90;;;;;;5110716;28;19944;-55
2022/03/18 05:40:18;;;;;;;;;;;5.00;99.90;;;;;;5115211;28;19933;-56
2022/03/18 05:42:50;;;;;;;;;;;5.00;99.90;;;;;;5113027;28;19934;-55
2022/03/18 05:45:23;;;;;;;;;;;5.00;99.90;;;;;;5112739;28;19944;-57
2022/03/18 05:47:55;;;;;;;;;;;5.00;99.90;;;;;;5106640;28;19937;-56
2022/03/18 05:50:28;;;;;;;;;;;5.00;99.90;;;;;;5111230;28;19930;-55
2022/03/18 05:53:01;;;;;;;;;;;5.00;99.90;;;;;;5106996;28;19926;-56
2022/03/18 05:58:24;;;;;;;;;;;5.00;99.90;;;;;;5119567;28;19926;-53
2022/03/18 06:00:57;;;;;;;;;;;5.00;99.90;;;;;;5110041;28;22772;-51
2022/03/18 06:03:30;;;;;;;;;;;5.00;99.90;;;;;;5109223;28;19933;-57
2022/03/18 06:06:05;;;;;;;;;;;5.00;99.90;;;;;;5101775;28;19930;-56
2022/03/18 06:14:21;;;;;;;;;;;5.10;99.90;;;;;;5093679;28;19944;-56
2022/03/18 06:16:55;;;;;;;;;;;5.10;99.90;;;;;;5095926;28;21020;-54
2022/03/18 06:19:28;;;;;;;;;;;5.10;99.90;;;;;;5107915;28;19933;-56
2022/03/18 06:22:00;;;;;;;;;;;5.20;99.90;;;;;;5113942;28;19927;-57
2022/03/18 06:24:32;;;;;;;;;;;5.20;99.90;;;;;;5106426;28;19937;-57
2022/03/18 06:27:05;;;;;;;;;;;5.30;99.90;;;;;;5101477;28;19933;-56
2022/03/18 06:29:39;;;;;;;;;;;5.30;99.90;;;;;;5099610;28;20503;-54
2022/03/18 06:32:12;;;;;;;;;;;5.30;99.90;;;;;;5098155;28;19926;-53
2022/03/18 06:34:44;;;;;;;;;;;5.40;99.90;;;;;;5120611;28;19948;-54
2022/03/18 06:37:16;;;;;;;;;;;5.40;99.90;;;;;;5120139;28;19929;-53
2022/03/18 06:39:49;;;;;;;;;;;5.50;99.90;;;;;;5125484;28;19923;-55
2022/03/18 06:42:21;;;;;;;;;;;5.50;99.90;;;;;;5122930;28;19933;-53
2022/03/18 06:44:54;;;;;;;;;;;5.60;99.90;;;;;;5124969;28;20394;-50
2022/03/18 06:47:27;;;;;;;;;;;5.70;99.90;;;;;;5120864;28;20393;-53
2022/03/18 06:49:59;;;;;;;;;;;5.80;99.90;;;;;;5124532;28;19999;-54
2022/03/18 06:52:31;;;;;;;;;;;5.90;99.90;;;;;;5120954;28;19945;-52
2022/03/18 06:55:04;;;;;;;;;;;6.00;99.90;;;;;;5121636;28;19937;-50
2022/03/18 06:57:36;;;;;;;;;;;6.10;99.90;;;;;;5123546;28;19926;-54
2022/03/18 07:00:09;;;;;;;;;;;6.20;99.90;;;;;;5122756;28;19926;-54
2022/03/18 07:02:41;;;;;;;;;;;6.20;99.90;;;;;;5120646;28;19927;-53
2022/03/18 07:05:14;;;;;;;;;;;6.30;99.90;;;;;;5124108;28;19937;-54
2022/03/18 07:07:48;;;;;;;;;;;6.50;99.90;;;;;;5123218;28;19926;-52
2022/03/18 07:10:20;;;;;;;;;;;6.50;99.90;;;;;;5119455;28;21935;-54
2022/03/18 07:12:53;;;;;;;;;;;6.60;99.90;;;;;;5120168;28;19929;-51
2022/03/18 07:15:26;;;;;;;;;;;6.60;99.90;;;;;;5122467;28;19929;-53
2022/03/18 07:17:59;;;;;;;;;;;6.70;99.90;;;;;;5120902;28;19933;-54
2022/03/18 07:20:32;;;;;;;;;;;6.70;99.90;;;;;;5119979;28;19929;-54
2022/03/18 07:23:07;;;;;;;;;;;6.80;99.90;;;;;;5111301;28;19926;-54
2022/03/18 07:25:40;;;;;;;;;;;6.90;99.90;;;;;;5112201;28;19926;-54
2022/03/18 07:28:14;;;;;;;;;;;6.90;99.90;;;;;;5118634;28;20320;-54
2022/03/18 07:30:46;;;;;;;;;;;7.00;99.90;;;;;;5114389;28;19926;-54
2022/03/18 07:33:18;;;;;;;;;;;7.00;99.90;;;;;;5108374;28;19949;-54
2022/03/18 07:35:51;;;;;;;;;;;7.10;99.90;;;;;;5113586;28;19933;-52
2022/03/18 07:38:23;;;;;;;;;;;7.10;99.90;;;;;;5110318;28;19931;-53
2022/03/18 07:40:57;;;;;;;;;;;7.20;99.90;;;;;;5118911;28;19927;-55
2022/03/18 07:43:30;;;;;;;;;;;7.20;99.90;;;;;;5129313;28;19930;-54
2022/03/18 07:46:02;;;;;;;;;;;7.30;99.90;;;;;;5119001;28;19922;-52
2022/03/18 07:48:36;;;;;;;;;;;7.30;99.90;;;;;;5119877;28;19927;-54
2022/03/18 07:51:08;;;;;;;;;;;7.30;99.90;;;;;;5113747;28;19957;-54
2022/03/18 07:53:40;;;;;;;;;;;7.40;99.90;;;;;;5132345;28;22147;-54
2022/03/18 07:56:12;;;;;;;;;;;7.40;99.90;;;;;;5113297;28;20225;-54
2022/03/18 07:58:45;;;;;;;;;;;7.40;99.90;;;;;;5115381;28;19933;-54
2022/03/18 08:01:17;;;;;;;;;;;7.40;99.90;;;;;;5114618;28;19930;-54
2022/03/18 08:03:49;;;;;;;;;;;7.40;99.90;;;;;;5118191;28;19926;-52
2022/03/18 08:06:22;;;;;;;;;;;7.40;99.90;;;;;;5117706;28;20309;-54
2022/03/18 08:08:54;;;;;;;;;;;7.40;99.90;;;;;;5117830;28;19930;-53
2022/03/18 08:11:26;;;;;;;;;;;7.40;99.90;;;;;;5119171;28;19923;-53
2022/03/18 08:13:59;;;;;;;;;;;7.50;99.90;;;;;;5109352;28;20476;-54
2022/03/18 08:16:32;;;;;;;;;;;7.50;99.90;;;;;;5108783;28;19930;-54
2022/03/18 08:19:04;;;;;;;;;;;7.50;99.90;;;;;;5122329;28;19930;-53
2022/03/18 08:21:37;;;;;;;;;;;7.50;98.30;;;;;;5121044;28;19933;-54
2022/03/18 08:24:09;;;;;;;;;;;7.60;98.40;;;;;;5116466;28;19928;-53
2022/03/18 08:26:41;;;;;;;;;;;7.60;97.40;;;;;;5118950;28;20501;-54
2022/03/18 08:29:14;;;;;;;;;;;7.60;93.90;;;;;;5119629;28;20465;-54
2022/03/18 08:31:46;;;;;;;;;;;7.80;94.30;;;;;;5115938;28;19926;-54
2022/03/18 08:34:20;;;;;;;;;;;7.80;93.80;;;;;;5123559;28;19922;-53
2022/03/18 08:36:52;;;;;;;;;;;7.90;93.70;;;;;;5113538;28;19933;-51
2022/03/18 08:39:24;;;;;;;;;;;7.90;93.60;;;;;;5120303;28;19926;-53
2022/03/18 08:41:57;;;;;;;;;;;7.90;92.80;;;;;;5123831;28;20301;-54
2022/03/18 08:44:29;;;;;;;;;;;7.90;92.30;;;;;;5126412;28;19926;-51
2022/03/18 08:47:02;;;;;;;;;;;8.00;91.60;;;;;;5126482;28;19930;-53
2022/03/18 08:49:34;;;;;;;;;;;7.90;91.50;;;;;;5122028;28;19922;-53
2022/03/18 08:52:07;;;;;;;;;;;7.90;91.20;;;;;;5127119;28;19927;-54
2022/03/18 08:54:39;;;;;;;;;;;7.90;91.30;;;;;;5139062;28;19926;-51
2022/03/18 08:57:11;;;;;;;;;;;7.90;91.60;;;;;;5120300;28;19933;-53
2022/03/18 08:59:43;;;;;;;;;;;8.00;91.70;;;;;;5117172;28;19929;-53
2022/03/18 09:02:16;;;;;;;;;;;8.00;91.70;;;;;;5117136;28;19926;-51
2022/03/18 09:04:50;;;;;;;;;;;8.10;92.30;;;;;;5117541;28;19930;-51
2022/03/18 09:07:22;;;;;;;;;;;8.10;91.80;;;;;;5113392;28;19930;-54
2022/03/18 09:09:54;;;;;;;;;;;8.10;92.00;;;;;;5127816;28;19933;-53
2022/03/18 09:12:27;;;;;;;;;;;8.30;92.30;;;;;;5119328;28;19926;-52
2022/03/18 09:14:59;;;;;;;;;;;8.40;93.10;;;;;;5117353;28;19922;-53
2022/03/18 09:17:31;;;;;;;;;;;8.40;91.70;;;;;;5123218;28;19926;-54
2022/03/18 09:20:06;;;;;;;;;;;8.40;91.60;;;;;;5121765;28;19926;-53
2022/03/18 09:22:38;;;;;;;;;;;8.50;91.70;;;;;;5123225;28;20410;-54
2022/03/18 09:25:11;;;;;;;;;;;8.60;91.30;;;;;;5122406;28;19922;-51
2022/03/18 09:27:43;;;;;;;;;;;8.60;91.60;;;;;;5111019;28;19933;-53
2022/03/18 09:30:15;;;;;;;;;;;8.70;91.20;;;;;;5114174;28;19930;-53
2022/03/18 09:32:48;;;;;;;;;;;8.80;91.20;;;;;;5116512;28;19929;-54
2022/03/18 09:35:21;;;;;;;;;;;8.90;90.50;;;;;;5121746;28;20582;-54
2022/03/18 09:37:54;;;;;;;;;;;8.90;90.00;;;;;;5117246;28;19949;-51
2022/03/18 09:40:26;;;;;;;;;;;9.00;89.00;;;;;;5121168;28;19928;-54
2022/03/18 09:43:18;;;;;;;;;;;9.10;90.00;;;;;;5118361;28;19930;-53
2022/03/18 09:45:51;;;;;;;;;;;9.20;88.20;;;;;;5113010;28;20401;-53
2022/03/18 09:48:44;;;;;;;;;;;9.20;87.90;;;;;;5118014;28;19930;-52
2022/03/18 09:51:16;;;;;;;;;;;9.10;88.00;;;;;;5112523;28;19996;-54
2022/03/18 09:54:07;;;;;;;;;;;9.10;86.50;;;;;;5103079;28;19933;-53
2022/03/18 09:56:40;;;;;;;;;;;9.20;87.00;;;;;;5110487;28;20853;-53
2022/03/18 09:59:13;;;;;;;;;;;9.20;85.90;;;;;;5113576;28;19930;-51
2022/03/18 10:01:46;;;;;;;;;;;9.30;85.00;;;;;;5115013;28;19944;-52
2022/03/18 10:04:18;;;;;;;;;;;9.40;85.30;;;;;;5120555;28;19927;-53
2022/03/18 10:06:51;;;;;;;;;;;9.50;83.10;;;;;;5117918;28;20605;-51
2022/03/18 10:09:26;;;;;;;;;;;9.60;82.00;;;;;;5120051;28;20000;-51
2022/03/18 10:12:00;;;;;;;;;;;9.70;82.70;;;;;;5106856;28;20393;-53
2022/03/18 10:14:33;;;;;;;;;;;9.70;82.50;;;;;;5113497;28;19922;-53
2022/03/18 10:17:08;;;;;;;;;;;9.80;83.50;;;;;;5105611;28;20325;-49
2022/03/18 10:19:45;;;;;;;;;;;9.80;81.10;;;;;;5119601;28;20462;-53
2022/03/18 10:22:18;;;;;;;;;;;9.90;80.00;;;;;;5099770;28;19929;-52
2022/03/18 10:24:51;;;;;;;;;;;9.90;79.10;;;;;;5122650;28;20447;-54
2022/03/18 10:27:23;;;;;;;;;;;9.90;79.70;;;;;;5113723;28;19926;-52
2022/03/18 10:29:55;;;;;;;;;;;10.00;79.50;;;;;;5113447;28;19940;-51
2022/03/18 10:32:27;;;;;;;;;;;10.00;80.40;;;;;;5117104;28;20456;-54
2022/03/18 10:37:54;;;;;;;;;;;10.00;75.80;;;;;;5119885;28;19933;-55
2022/03/18 10:40:34;;;;;;;;;;;9.90;72.50;;;;;;5117533;28;19930;-53
2022/03/18 10:43:07;;;;;;;;;;;9.80;72.90;;;;;;5120521;28;19930;-54
2022/03/18 10:45:57;;;;;;;;;;;9.90;73.70;;;;;;5118046;28;19930;-54
2022/03/18 10:48:30;;;;;;;;;;;10.00;74.90;;;;;;5122568;28;20767;-53
2022/03/18 10:51:06;;;;;;;;;;;10.10;71.20;;;;;;5142336;28;19933;-53
2022/03/18 10:53:40;;;;;;;;;;;10.10;71.40;;;;;;5139041;28;20302;-53
2022/03/18 10:56:13;;;;;;;;;;;10.10;70.50;;;;;;5110277;28;20326;-54
2022/03/18 10:58:45;;;;;;;;;;;10.10;69.30;;;;;;5123844;28;19937;-50
2022/03/18 11:01:18;;;;;;;;;;;10.20;71.50;;;;;;5126864;28;19938;-53
2022/03/18 11:03:52;;;;;;;;;;;10.30;71.20;;;;;;5127178;28;19937;-54
2022/03/18 11:06:24;;;;;;;;;;;10.40;71.20;;;;;;5120405;28;19933;-54
2022/03/18 11:08:56;;;;;;;;;;;10.40;72.20;;;;;;5124654;28;20386;-52
2022/03/18 11:11:29;;;;;;;;;;;10.60;71.30;;;;;;5120641;28;19934;-52
2022/03/18 11:16:56;;;;;;;;;;;10.70;71.80;;;;;;5137461;28;20521;-53
2022/03/18 11:19:29;;;;;;;;;;;10.80;71.40;;;;;;5143101;28;19925;-55
2022/03/18 11:22:03;;;;;;;;;;;10.90;70.70;;;;;;5128263;28;19937;-51
2022/03/18 11:24:36;;;;;;;;;;;10.90;70.60;;;;;;5136576;28;19930;-50
2022/03/18 11:27:09;;;;;;;;;;;10.90;68.10;;;;;;5137421;28;19940;-53
2022/03/18 11:29:41;;;;;;;;;;;10.80;68.90;;;;;;5140094;28;20456;-50
2022/03/18 11:32:14;;;;;;;;;;;10.70;69.10;;;;;;5141128;28;19929;-51
2022/03/18 11:35:07;;;;;;;;;;;10.70;67.00;;;;;;5141185;28;19921;-53
2022/03/18 11:37:59;;;;;;;;;;;10.70;68.00;;;;;;5141704;28;19926;-53
2022/03/18 11:40:33;;;;;;;;;;;10.60;68.30;;;;;;5136966;28;20004;-52
2022/03/18 11:43:23;;;;;;;;;;;10.60;68.30;;;;;;5135625;28;19925;-51
2022/03/18 11:46:17;;;;;;;;;;;10.60;68.50;;;;;;5124556;28;19926;-54
2022/03/18 11:48:49;;;;;;;;;;;10.60;68.70;;;;;;5135878;28;19930;-51
2022/03/18 11:51:26;;;;;;;;;;;10.70;67.80;;;;;;5133117;28;19926;-50
2022/03/18 11:54:10;;;;;;;;;;;10.70;68.30;;;;;;5139082;28;20605;-49
2022/03/18 11:56:53;;;;;;;;;;;10.60;70.00;;;;;;5137671;28;19933;-52
2022/03/18 11:59:25;;;;;;;;;;;10.60;69.00;;;;;;5142997;28;19934;-46
2022/03/18 12:02:02;;;;;;;;;;;10.60;70.50;;;;;;5135495;28;19926;-51
2022/03/18 12:04:34;;;;;;;;;;;10.60;70.80;;;;;;5132668;28;20378;-46
2022/03/18 12:07:09;;;;;;;;;;;10.70;71.10;;;;;;5140886;28;19925;-49
2022/03/18 12:09:49;;;;;;;;;;;10.80;70.30;;;;;;5155097;28;20301;-48
2022/03/18 12:12:26;;;;;;;;;;;10.80;69.10;;;;;;5136486;28;19929;-52
2022/03/18 12:15:02;;;;;;;;;;;10.90;70.60;;;;;;5129090;28;19928;-51
2022/03/18 12:17:42;;;;;;;;;;;11.00;71.20;;;;;;5129083;28;19925;-54
2022/03/18 12:20:19;;;;;;;;;;;11.10;69.80;;;;;;5122835;28;19930;-51
2022/03/18 12:22:52;;;;;;;;;;;11.20;69.60;;;;;;5121423;28;19932;-50
2022/03/18 12:25:25;;;;;;;;;;;11.20;69.60;;;;;;5134104;28;19922;-51
2022/03/18 12:27:57;;;;;;;;;;;11.30;69.60;;;;;;5132960;28;19925;-49
2022/03/18 12:30:30;;;;;;;;;;;11.30;69.00;;;;;;5131026;28;19930;-50
2022/03/18 12:33:04;;;;;;;;;;;11.40;69.80;;;;;;5122493;28;19934;-52
2022/03/18 12:35:38;;;;;;;;;;;11.50;70.60;;;;;;5131912;28;19929;-52
2022/03/18 12:38:14;;;;;;;;;;;11.60;67.80;;;;;;5137322;28;19922;-52
2022/03/18 12:40:57;;;;;;;;;;;11.50;67.40;;;;;;5129950;28;20304;-50
2022/03/18 12:43:31;;;;;;;;;;;11.50;67.40;;;;;;5134094;28;19925;-51
2022/03/18 12:46:04;;;;;;;;;;;11.40;68.30;;;;;;5123641;28;19930;-49
2022/03/18 12:48:45;;;;;;;;;;;11.50;68.50;;;;;;5130831;28;19925;-51
2022/03/18 12:51:18;;;;;;;;;;;11.60;68.80;;;;;;5123893;28;19930;-50
2022/03/18 12:53:50;;;;;;;;;;;11.70;68.30;;;;;;5133347;28;19937;-49
2022/03/18 12:56:42;;;;;;;;;;;11.70;68.00;;;;;;5144171;28;19925;-53
2022/03/18 12:59:16;;;;;;;;;;;11.70;68.60;;;;;;5134038;28;19925;-52
2022/03/18 13:01:52;;;;;;;;;;;11.70;69.20;;;;;;5129007;28;20408;-51
2022/03/18 13:04:24;;;;;;;;;;;11.80;69.50;;;;;;5112208;28;19930;-53
2022/03/18 13:06:57;;;;;;;;;;;11.80;68.20;;;;;;5125546;28;19922;-52
2022/03/18 13:09:47;;;;;;;;;;;11.80;68.30;;;;;;5139151;28;20361;-52
2022/03/18 13:12:30;;;;;;;;;;;11.80;67.00;;;;;;5133888;28;19922;-50
2022/03/18 13:15:15;;;;;;;;;;;11.70;66.10;;;;;;5124966;28;20812;-50
2022/03/18 13:17:48;;;;;;;;;;;11.70;68.00;;;;;;5129509;28;19926;-50
2022/03/18 13:20:21;;;;;;;;;;;11.70;67.00;;;;;;5128519;28;19932;-53
2022/03/18 13:22:55;;;;;;;;;;;11.80;67.30;;;;;;5120336;28;19930;-52
2022/03/18 13:25:28;;;;;;;;;;;11.70;65.70;;;;;;5116427;28;19922;-51
2022/03/18 13:28:00;;;;;;;;;;;11.70;67.30;;;;;;5122291;28;19926;-49
2022/03/18 13:33:24;;;;;;;;;;;11.50;66.80;;;;;;5121493;28;21281;-52
2022/03/18 13:35:57;;;;;;;;;;;11.50;66.60;;;;;;5128742;28;19930;-53
2022/03/18 13:38:30;;;;;;;;;;;11.50;67.10;;;;;;5125153;28;19968;-53
2022/03/18 13:41:03;;;;;;;;;;;11.40;66.40;;;;;;5128149;28;20671;-48
2022/03/18 13:43:36;;;;;;;;;;;11.30;66.80;;;;;;5120019;28;19930;-52
2022/03/18 13:46:30;;;;;;;;;;;11.40;68.10;;;;;;5120645;28;19926;-51
2022/03/18 13:49:10;;;;;;;;;;;11.40;68.40;;;;;;5133295;28;19926;-52
2022/03/18 13:51:47;;;;;;;;;;;11.50;68.40;;;;;;5134147;28;19926;-52
2022/03/18 13:54:21;;;;;;;;;;;11.60;66.80;;;;;;5134535;28;20389;-52
2022/03/18 13:56:58;;;;;;;;;;;11.50;67.00;;;;;;5129552;28;19936;-52
2022/03/18 13:59:30;;;;;;;;;;;11.60;67.30;;;;;;5126166;28;19925;-51
2022/03/18 14:02:08;;;;;;;;;;;11.60;66.60;;;;;;5142710;28;19941;-53
2022/03/18 14:04:47;;;;;;;;;;;11.60;66.20;;;;;;5130598;28;20910;-53
2022/03/18 14:07:20;;;;;;;;;;;11.50;66.70;;;;;;5122856;28;20853;-51
2022/03/18 14:09:54;;;;;;;;;;;11.60;66.70;;;;;;5132197;28;20417;-53
2022/03/18 14:12:28;;;;;;;;;;;11.70;67.60;;;;;;5116166;28;19933;-47
2022/03/18 14:15:15;;;;;;;;;;;11.70;66.90;;;;;;5118887;28;19930;-50
2022/03/18 14:18:00;;;;;;;;;;;11.70;67.20;;;;;;5131920;28;19932;-48
2022/03/18 14:20:59;;;;;;;;;;;11.70;66.30;;;;;;5158092;28;19925;-52
2022/03/18 14:23:33;;;;;;;;;;;11.60;67.00;;;;;;5171190;28;19925;-48
2022/03/18 14:26:06;;;;;;;;;;;11.50;68.10;;;;;;5155356;28;19933;-49
2022/03/18 14:28:40;;;;;;;;;;;11.60;67.60;;;;;;5192720;28;19925;-47
2022/03/18 14:31:13;;;;;;;;;;;11.60;67.40;;;;;;5166852;28;19936;-49
2022/03/18 14:33:45;;;;;;;;;;;11.60;66.50;;;;;;5177817;28;19925;-51
2022/03/18 14:36:18;;;;;;;;;;;11.60;67.40;;;;;;5154729;28;20961;-51
2022/03/18 14:38:50;;;;;;;;;;;11.70;66.70;;;;;;5168393;28;19932;-48
2022/03/18 14:41:26;;;;;;;;;;;11.70;67.30;;;;;;5159373;28;19932;-48
2022/03/18 14:43:59;;;;;;;;;;;11.70;67.60;;;;;;5176772;28;19928;-47
2022/03/18 14:46:31;;;;;;;;;;;11.80;66.90;;;;;;5164370;28;19925;-51
2022/03/18 14:49:03;;;;;;;;;;;11.80;66.80;;;;;;5182598;28;20004;-48
2022/03/18 14:51:36;;;;;;;;;;;11.90;66.80;;;;;;5175371;28;20360;-51
2022/03/18 14:54:08;;;;;;;;;;;11.90;65.80;;;;;;5183717;28;19921;-50
2022/03/18 14:56:40;;;;;;;;;;;12.00;66.60;;;;;;5169830;28;19925;-52
2022/03/18 14:59:13;;;;;;;;;;;12.00;64.70;;;;;;5175180;28;21126;-51
2022/03/18 15:01:45;;;;;;;;;;;12.00;64.70;;;;;;5165522;28;19920;-50
2022/03/18 15:04:17;;;;;;;;;;;12.10;64.00;;;;;;5181989;28;19929;-53
2022/03/18 15:06:50;;;;;;;;;;;12.00;63.70;;;;;;5180972;28;19925;-48
2022/03/18 15:09:22;;;;;;;;;;;12.00;62.80;;;;;;5180548;28;19932;-51
2022/03/18 15:11:54;;;;;;;;;;;12.00;63.50;;;;;;5207724;28;19929;-53
2022/03/18 15:14:26;;;;;;;;;;;11.90;63.80;;;;;;5180557;28;19921;-50
2022/03/18 15:16:59;;;;;;;;;;;11.90;62.00;;;;;;5190571;28;19925;-49
2022/03/18 15:19:32;;;;;;;;;;;11.90;61.30;;;;;;5180934;28;19925;-50
2022/03/18 15:22:06;;;;;;;;;;;11.90;62.00;;;;;;5184498;28;20930;-49
2022/03/18 15:24:41;;;;;;;;;;;11.80;60.90;;;;;;5172840;28;19929;-48
2022/03/18 15:27:15;;;;;;;;;;;11.80;60.30;;;;;;5160008;28;20708;-49
2022/03/18 15:29:48;;;;;;;;;;;11.70;61.80;;;;;;5168767;28;19929;-50